createdAt,value
2022-08-07T00:01:44.394Z,19.49
2022-08-07T00:04:11.374Z,19.49
2022-08-07T00:06:51.372Z,19.46
2022-08-07T00:09:22.423Z,19.42
2022-08-07T00:11:55.877Z,19.40
2022-08-07T00:14:31.236Z,19.32
2022-08-07T00:17:01.585Z,19.29
2022-08-07T00:19:59.567Z,19.23
2022-08-07T00:22:24.547Z,19.28
2022-08-07T00:25:07.045Z,19.26
2022-08-07T00:27:53.188Z,19.28
2022-08-07T00:30:27.303Z,19.22
2022-08-07T00:32:58.350Z,19.13
2022-08-07T00:35:29.833Z,19.01
2022-08-07T00:37:59.950Z,18.95
2022-08-07T00:40:36.442Z,18.94
2022-08-07T00:44:00.229Z,18.92
2022-08-07T00:46:02.931Z,18.89
2022-08-07T00:48:32.890Z,18.84
2022-08-07T00:51:02.928Z,18.80
2022-08-07T00:53:38.823Z,18.74
2022-08-07T00:56:19.165Z,18.68
2022-08-07T00:58:50.224Z,18.74
2022-08-07T01:01:21.495Z,18.82
2022-08-07T01:03:55.546Z,18.81
2022-08-07T01:06:28.525Z,18.80
2022-08-07T01:09:00.607Z,18.78
2022-08-07T01:12:23.722Z,18.72
2022-08-07T01:14:28.354Z,18.71
2022-08-07T01:16:59.312Z,18.81
2022-08-07T01:19:32.309Z,18.75
2022-08-07T01:22:08.798Z,18.81
2022-08-07T01:24:43.308Z,18.78
2022-08-07T01:27:19.867Z,18.67
2022-08-07T01:29:51.868Z,18.60
2022-08-07T01:32:22.676Z,18.55
2022-08-07T01:34:55.863Z,18.50
2022-08-07T01:37:29.535Z,18.46
2022-08-07T01:40:07.007Z,18.49
2022-08-07T01:42:58.533Z,18.45
2022-08-07T01:45:36.859Z,18.38
2022-08-07T01:48:19.928Z,18.38
2022-08-07T01:51:24.243Z,18.44
2022-08-07T01:54:09.621Z,18.54
2022-08-07T01:56:51.077Z,18.70
2022-08-07T01:59:30.913Z,18.80
2022-08-07T02:02:07.047Z,18.90
2022-08-07T02:04:52.538Z,19.00
2022-08-07T02:07:36.228Z,19.29
2022-08-07T02:10:28.042Z,19.56
2022-08-07T02:13:01.182Z,19.79
2022-08-07T02:15:39.863Z,20.14
2022-08-07T02:18:13.357Z,20.39
2022-08-07T02:20:48.713Z,20.69
2022-08-07T02:23:24.174Z,21.00
2022-08-07T02:26:31.253Z,21.14
2022-08-07T02:28:49.224Z,21.47
2022-08-07T02:31:29.169Z,21.68
2022-08-07T02:34:02.778Z,22.06
2022-08-07T02:36:34.368Z,22.28
2022-08-07T02:39:17.069Z,22.50
2022-08-07T02:42:10.354Z,22.74
2022-08-07T02:44:49.893Z,22.99
2022-08-07T02:47:23.980Z,23.07
2022-08-07T02:50:05.401Z,23.15
2022-08-07T02:52:40.630Z,22.57
2022-08-07T02:55:28.359Z,21.96
2022-08-07T02:58:14.759Z,21.51
2022-08-07T03:00:46.795Z,21.46
2022-08-07T03:03:21.086Z,21.24
2022-08-07T03:05:55.413Z,21.18
2022-08-07T03:08:29.200Z,21.29
2022-08-07T03:11:01.894Z,21.30
2022-08-07T03:13:49.510Z,21.39
2022-08-07T03:16:23.083Z,21.51
2022-08-07T03:18:58.296Z,21.66
2022-08-07T03:21:28.089Z,21.80
2022-08-07T03:24:21.159Z,21.96
2022-08-07T03:26:59.132Z,21.97
2022-08-07T03:29:38.804Z,22.04
2022-08-07T03:32:18.023Z,22.17
2022-08-07T03:35:16.746Z,22.25
2022-08-07T03:37:46.122Z,22.40
2022-08-07T03:40:30.893Z,22.45
2022-08-07T03:43:10.031Z,22.54
2022-08-07T03:45:48.587Z,22.66
2022-08-07T03:48:22.699Z,22.65
2022-08-07T03:54:05.742Z,22.92
2022-08-07T03:56:33.031Z,22.95
2022-08-07T03:59:09.969Z,22.97
2022-08-07T04:01:50.962Z,23.05
2022-08-07T04:04:24.512Z,23.19
2022-08-07T04:07:00.153Z,23.35
2022-08-07T04:09:45.226Z,23.44
2022-08-07T04:12:28.250Z,23.49
2022-08-07T04:15:00.819Z,23.21
2022-08-07T04:18:57.225Z,23.24
2022-08-07T04:20:25.318Z,23.23
2022-08-07T04:23:01.405Z,23.42
2022-08-07T04:25:39.341Z,23.42
2022-08-07T04:28:13.293Z,23.43
2022-08-07T04:30:55.427Z,23.23
2022-08-07T04:33:36.151Z,23.16
2022-08-07T04:36:08.829Z,22.92
2022-08-07T04:38:40.654Z,22.84
2022-08-07T04:41:19.064Z,23.13
2022-08-07T04:44:14.471Z,23.46
2022-08-07T04:46:59.594Z,23.78
2022-08-07T04:49:57.789Z,24.05
2022-08-07T04:52:46.808Z,24.25
2022-08-07T04:58:13.820Z,24.42
2022-08-07T04:58:34.917Z,24.51
2022-08-07T05:01:19.143Z,24.55
2022-08-07T05:04:06.375Z,24.53
2022-08-07T05:06:51.755Z,24.64
2022-08-07T05:09:42.934Z,24.79
2022-08-07T05:12:27.267Z,25.07
2022-08-07T05:15:23.239Z,25.21
2022-08-07T05:18:08.714Z,25.16
2022-08-07T05:20:43.097Z,25.23
2022-08-07T05:23:19.130Z,25.29
2022-08-07T05:26:11.505Z,25.43
2022-08-07T05:28:46.637Z,25.45
2022-08-07T05:31:24.939Z,25.53
2022-08-07T05:34:05.810Z,25.49
2022-08-07T05:36:44.666Z,25.64
2022-08-07T05:40:06.439Z,25.73
2022-08-07T05:42:34.860Z,25.81
2022-08-07T05:45:26.088Z,25.94
2022-08-07T05:48:06.338Z,26.20
2022-08-07T05:50:48.229Z,26.30
2022-08-07T05:54:13.790Z,26.22
2022-08-07T05:56:13.302Z,26.27
2022-08-07T05:58:52.815Z,26.41
2022-08-07T06:01:34.928Z,26.53
2022-08-07T06:04:09.641Z,26.65
2022-08-07T06:06:46.210Z,26.71
2022-08-07T06:09:18.892Z,26.95
2022-08-07T06:11:52.112Z,27.06
2022-08-07T06:14:30.222Z,27.20
2022-08-07T06:17:07.023Z,27.68
2022-08-07T06:19:52.006Z,28.21
2022-08-07T06:22:36.872Z,28.96
2022-08-07T06:25:21.795Z,29.76
2022-08-07T06:28:03.236Z,30.19
2022-08-07T06:30:37.950Z,29.97
2022-08-07T06:33:16.913Z,29.61
2022-08-07T06:36:13.415Z,29.66
2022-08-07T06:38:58.540Z,29.91
2022-08-07T06:42:03.055Z,30.28
2022-08-07T06:44:51.430Z,29.69
2022-08-07T06:47:21.523Z,29.78
2022-08-07T06:49:58.559Z,30.01
2022-08-07T06:52:37.235Z,30.12
2022-08-07T06:55:33.475Z,30.33
2022-08-07T06:58:10.179Z,29.84
2022-08-07T07:00:52.739Z,29.59
2022-08-07T07:03:39.541Z,29.50
2022-08-07T07:06:11.004Z,29.45
2022-08-07T07:08:46.635Z,29.51
2022-08-07T07:12:08.622Z,29.64
2022-08-07T07:14:08.507Z,29.43
2022-08-07T07:16:49.790Z,29.66
2022-08-07T07:19:56.374Z,29.88
2022-08-07T07:22:35.970Z,30.01
2022-08-07T07:26:32.401Z,30.18
2022-08-07T07:28:03.386Z,29.82
2022-08-07T07:30:40.327Z,29.85
2022-08-07T07:33:13.853Z,29.92
2022-08-07T07:36:04.150Z,29.94
2022-08-07T07:38:35.887Z,30.57
2022-08-07T07:41:09.294Z,30.88
2022-08-07T07:44:14.669Z,30.59
2022-08-07T07:46:55.176Z,30.27
2022-08-07T07:50:35.613Z,30.27
2022-08-07T07:52:19.553Z,30.26
2022-08-07T07:54:51.456Z,30.68
2022-08-07T07:57:43.875Z,30.79
2022-08-07T08:00:29.192Z,30.99
2022-08-07T08:03:05.583Z,30.85
2022-08-07T08:05:51.156Z,30.83
2022-08-07T08:08:35.314Z,30.64
2022-08-07T08:11:16.279Z,30.33
2022-08-07T08:13:54.680Z,30.60
2022-08-07T08:16:35.617Z,30.95
2022-08-07T08:19:09.741Z,31.15
2022-08-07T08:22:08.076Z,31.12
2022-08-07T08:25:18.616Z,31.27
2022-08-07T08:27:57.492Z,31.41
2022-08-07T08:30:42.694Z,31.03
2022-08-07T08:33:21.915Z,31.18
2022-08-07T08:35:55.929Z,31.43
2022-08-07T08:38:40.424Z,31.80
2022-08-07T08:41:18.776Z,31.87
2022-08-07T08:43:59.300Z,31.87
2022-08-07T08:46:40.605Z,32.03
2022-08-07T08:49:32.748Z,32.20
2022-08-07T08:52:14.437Z,32.28
2022-08-07T08:55:07.741Z,32.56
2022-08-07T08:57:41.401Z,32.58
2022-08-07T09:00:12.345Z,32.98
2022-08-07T09:02:53.067Z,32.95
2022-08-07T09:05:37.818Z,33.05
2022-08-07T09:08:28.613Z,33.56
2022-08-07T09:11:14.028Z,33.59
2022-08-07T09:14:09.657Z,33.91
2022-08-07T09:16:49.894Z,34.29
2022-08-07T09:19:53.541Z,34.44
2022-08-07T09:24:28.914Z,34.77
2022-08-07T09:25:27.943Z,34.57
2022-08-07T09:28:06.158Z,34.54
2022-08-07T09:31:03.003Z,34.57
2022-08-07T09:33:57.958Z,34.80
2022-08-07T09:36:35.464Z,35.00
2022-08-07T09:39:53.902Z,34.24
2022-08-07T09:42:33.280Z,33.70
2022-08-07T09:47:55.030Z,33.68
2022-08-07T09:48:19.084Z,33.47
2022-08-07T09:51:14.562Z,33.12
2022-08-07T09:54:02.344Z,32.64
2022-08-07T09:56:53.525Z,32.45
2022-08-07T10:00:01.007Z,32.47
2022-08-07T10:04:07.151Z,32.41
2022-08-07T10:06:42.166Z,32.14
2022-08-07T10:10:00.621Z,32.04
2022-08-07T10:12:53.179Z,32.01
2022-08-07T10:15:56.123Z,31.83
2022-08-07T10:18:51.209Z,32.07
2022-08-07T10:22:14.161Z,31.87
2022-08-07T10:24:57.605Z,31.93
2022-08-07T10:27:47.084Z,32.14
2022-08-07T10:30:20.074Z,31.96
2022-08-07T10:34:06.061Z,31.91
2022-08-07T10:36:30.277Z,31.82
2022-08-07T10:39:20.009Z,31.79
2022-08-07T10:42:09.335Z,31.73
2022-08-07T10:45:01.433Z,31.73
2022-08-07T10:47:53.887Z,31.74
2022-08-07T10:50:28.886Z,30.82
2022-08-07T10:53:09.036Z,30.77
2022-08-07T10:55:50.410Z,30.65
2022-08-07T10:58:40.314Z,30.30
2022-08-07T11:01:23.945Z,30.29
2022-08-07T11:04:23.334Z,30.01
2022-08-07T11:07:02.031Z,30.01
2022-08-07T11:10:09.293Z,29.87
2022-08-07T11:12:35.534Z,29.92
2022-08-07T11:15:14.547Z,30.10
2022-08-07T11:17:53.802Z,30.34
2022-08-07T11:20:27.592Z,29.85
2022-08-07T11:23:04.350Z,29.85
2022-08-07T11:25:48.034Z,30.24
2022-08-07T11:28:26.593Z,30.58
2022-08-07T11:31:00.955Z,30.66
2022-08-07T11:33:59.524Z,30.66
2022-08-07T11:36:39.367Z,30.07
2022-08-07T11:39:20.635Z,29.82
2022-08-07T11:42:03.186Z,29.81
2022-08-07T11:44:52.760Z,29.65
2022-08-07T11:47:56.450Z,29.13
2022-08-07T11:50:44.657Z,28.49
2022-08-07T11:53:43.371Z,28.05
2022-08-07T11:56:53.044Z,26.15
2022-08-07T12:00:12.226Z,23.67
2022-08-07T12:03:44.698Z,23.65
2022-08-07T12:06:39.545Z,24.38
2022-08-07T12:09:16.454Z,24.72
2022-08-07T12:12:08.764Z,25.24
2022-08-07T12:15:01.132Z,25.71
2022-08-07T12:17:58.556Z,25.83
2022-08-07T12:20:34.786Z,25.87
2022-08-07T12:24:07.707Z,25.58
2022-08-07T12:26:46.097Z,25.00
2022-08-07T12:29:37.887Z,23.82
2022-08-07T12:32:17.105Z,22.86
2022-08-07T12:34:55.846Z,22.68
2022-08-07T12:37:28.495Z,22.73
2022-08-07T12:40:46.618Z,22.80
2022-08-07T12:44:01.486Z,22.79
2022-08-07T12:46:15.913Z,22.88
2022-08-07T12:49:10.262Z,22.86
2022-08-07T12:52:12.023Z,22.96
2022-08-07T12:54:55.003Z,23.07
2022-08-07T12:58:00.283Z,23.20
2022-08-07T13:00:32.759Z,23.06
2022-08-07T13:03:55.059Z,23.05
2022-08-07T13:07:00.520Z,23.01
2022-08-07T13:10:28.620Z,22.98
2022-08-07T13:12:52.278Z,23.02
2022-08-07T13:15:34.067Z,22.94
2022-08-07T13:18:28.269Z,23.02
2022-08-07T13:21:07.765Z,23.32
2022-08-07T13:24:01.441Z,23.08
2022-08-07T13:26:41.790Z,22.96
2022-08-07T13:29:20.901Z,22.93
2022-08-07T13:31:57.274Z,22.68
2022-08-07T13:34:44.786Z,22.45
2022-08-07T13:37:24.554Z,22.24
2022-08-07T13:40:35.061Z,22.45
2022-08-07T13:43:00.832Z,22.82
2022-08-07T13:46:12.829Z,23.12
2022-08-07T13:48:34.239Z,23.09
2022-08-07T13:51:28.547Z,23.03
2022-08-07T13:54:00.853Z,23.23
2022-08-07T13:56:41.133Z,23.19
2022-08-07T13:59:25.606Z,23.52
2022-08-07T14:02:07.731Z,23.74
2022-08-07T14:04:50.107Z,24.16
2022-08-07T14:07:27.987Z,23.94
2022-08-07T14:10:17.450Z,24.10
2022-08-07T14:12:55.818Z,24.20
2022-08-07T14:15:32.132Z,24.00
2022-08-07T14:18:24.080Z,23.92
2022-08-07T14:21:08.236Z,24.22
2022-08-07T14:24:00.538Z,24.34
2022-08-07T14:26:37.342Z,24.70
2022-08-07T14:30:06.413Z,24.60
2022-08-07T14:32:04.915Z,24.43
2022-08-07T14:34:46.064Z,24.36
2022-08-07T14:37:19.065Z,24.18
2022-08-07T14:40:15.753Z,23.84
2022-08-07T14:43:55.594Z,23.45
2022-08-07T14:45:46.617Z,23.23
2022-08-07T14:48:22.317Z,23.08
2022-08-07T14:51:00.595Z,22.85
2022-08-07T14:54:08.558Z,22.62
2022-08-07T14:56:30.157Z,22.73
2022-08-07T14:59:13.829Z,22.74
2022-08-07T15:01:58.448Z,22.75
2022-08-07T15:04:28.888Z,22.85
2022-08-07T15:07:00.812Z,22.84
2022-08-07T15:09:57.264Z,22.77
2022-08-07T15:15:23.770Z,22.79
2022-08-07T15:18:02.597Z,22.85
2022-08-07T15:20:55.497Z,22.96
2022-08-07T15:25:02.042Z,23.13
2022-08-07T15:26:28.627Z,23.24
2022-08-07T15:32:01.595Z,23.09
2022-08-07T15:34:37.868Z,23.00
2022-08-07T15:37:27.421Z,22.85
2022-08-07T15:40:01.102Z,22.74
2022-08-07T15:42:51.840Z,22.59
2022-08-07T15:45:55.858Z,22.63
2022-08-07T15:48:37.469Z,22.46
2022-08-07T15:54:19.407Z,22.12
2022-08-07T15:56:50.388Z,21.86
2022-08-07T15:59:39.467Z,21.71
2022-08-07T16:02:15.675Z,21.65
2022-08-07T16:04:45.832Z,21.58
2022-08-07T16:08:30.619Z,21.62
2022-08-07T16:10:14.876Z,21.57
2022-08-07T16:13:04.661Z,21.39
2022-08-07T16:15:58.976Z,21.25
2022-08-07T16:18:50.779Z,21.12
2022-08-07T16:21:56.990Z,20.90
2022-08-07T16:24:34.938Z,20.71
2022-08-07T16:27:20.890Z,20.58
2022-08-07T16:30:30.171Z,20.41
2022-08-07T16:33:00.442Z,20.26
2022-08-07T16:36:03.001Z,20.15
2022-08-07T16:39:01.016Z,20.10
2022-08-07T16:41:54.308Z,20.09
2022-08-07T16:45:03.846Z,20.09
2022-08-07T16:47:56.856Z,20.08
2022-08-07T16:50:52.557Z,20.05
2022-08-07T16:54:02.908Z,20.05
2022-08-07T16:56:57.218Z,20.03
2022-08-07T16:59:46.414Z,20.00
2022-08-07T17:02:52.267Z,20.00
2022-08-07T17:06:28.739Z,20.06
2022-08-07T17:09:08.835Z,20.06
2022-08-07T17:12:03.921Z,20.02
2022-08-07T17:14:45.335Z,19.92
2022-08-07T17:17:46.612Z,19.90
2022-08-07T17:20:30.003Z,19.89
2022-08-07T17:23:08.633Z,19.85
2022-08-07T17:25:54.732Z,19.82
2022-08-07T17:28:38.139Z,19.80
2022-08-07T17:31:17.085Z,19.80
2022-08-07T17:34:18.159Z,19.65
2022-08-07T17:36:57.429Z,19.55
2022-08-07T17:39:58.892Z,19.49
2022-08-07T17:42:59.483Z,19.58
2022-08-07T17:45:35.334Z,19.65
2022-08-07T17:48:10.404Z,19.65
2022-08-07T17:50:54.478Z,19.67
2022-08-07T17:54:01.474Z,19.64
2022-08-07T17:56:28.848Z,19.49
2022-08-07T17:59:10.713Z,19.38
2022-08-07T18:01:51.753Z,19.36
2022-08-07T18:04:36.016Z,19.34
2022-08-07T18:07:20.898Z,19.32
2022-08-07T18:10:07.369Z,19.39
2022-08-07T18:13:06.875Z,19.38
2022-08-07T18:15:57.125Z,19.34
2022-08-07T18:18:44.995Z,19.29
2022-08-07T18:21:51.637Z,19.24
2022-08-07T18:24:28.509Z,19.30
2022-08-07T18:27:38.414Z,19.44
2022-08-07T18:30:30.807Z,19.54
2022-08-07T18:33:37.851Z,19.67
2022-08-07T18:36:18.428Z,19.65
2022-08-07T18:40:09.058Z,19.45
2022-08-07T18:42:18.926Z,19.36
2022-08-07T18:48:01.560Z,19.34
2022-08-07T18:50:55.788Z,19.41
2022-08-07T18:53:39.923Z,19.53
2022-08-07T18:56:21.161Z,19.57
2022-08-07T18:59:47.342Z,19.55
2022-08-07T19:02:34.051Z,19.49
2022-08-07T19:05:24.734Z,19.42
2022-08-07T19:08:03.933Z,19.45
2022-08-07T19:10:51.955Z,19.40
2022-08-07T19:13:27.700Z,19.35
2022-08-07T19:16:43.129Z,19.49
2022-08-07T19:19:06.105Z,19.36
2022-08-07T19:21:56.088Z,19.31
2022-08-07T19:24:43.325Z,19.30
2022-08-07T19:28:31.057Z,19.28
2022-08-07T19:30:55.555Z,19.14
2022-08-07T19:33:12.775Z,19.13
2022-08-07T19:35:45.253Z,19.10
2022-08-07T19:38:18.846Z,19.08
2022-08-07T19:40:52.480Z,19.08
2022-08-07T19:43:49.000Z,19.06
2022-08-07T19:46:35.608Z,19.04
2022-08-07T19:49:08.419Z,19.01
2022-08-07T19:51:52.161Z,19.03
2022-08-07T19:54:35.150Z,19.01
2022-08-07T19:58:02.300Z,19.01
2022-08-07T20:00:08.887Z,18.95
2022-08-07T20:02:52.323Z,18.89
2022-08-07T20:05:27.813Z,18.84
2022-08-07T20:08:01.576Z,18.96
2022-08-07T20:10:51.945Z,19.02
2022-08-07T20:13:41.791Z,19.04
2022-08-07T20:16:15.836Z,18.96
2022-08-07T20:19:12.089Z,18.98
2022-08-07T20:21:47.672Z,19.00
2022-08-07T20:24:23.247Z,18.96
2022-08-07T20:26:56.471Z,18.99
2022-08-07T20:29:48.093Z,18.99
2022-08-07T20:32:25.557Z,18.95
2022-08-07T20:35:01.442Z,18.98
2022-08-07T20:37:57.666Z,18.95
2022-08-07T20:40:34.288Z,18.93
2022-08-07T20:43:09.692Z,18.91
2022-08-07T20:46:26.873Z,18.86
2022-08-07T20:48:38.615Z,18.86
2022-08-07T20:51:29.990Z,18.82
2022-08-07T20:54:07.163Z,18.88
2022-08-07T20:56:46.030Z,18.82
2022-08-07T20:59:27.225Z,18.87
2022-08-07T21:02:34.218Z,18.98
2022-08-07T21:05:10.190Z,18.96
2022-08-07T21:07:49.735Z,18.99
2022-08-07T21:10:29.449Z,18.97
2022-08-07T21:13:04.499Z,18.93
2022-08-07T21:15:47.856Z,18.93
2022-08-07T21:18:33.443Z,18.83
2022-08-07T21:21:04.864Z,18.77
2022-08-07T21:23:50.466Z,18.63
2022-08-07T21:26:30.743Z,18.45
2022-08-07T21:29:06.797Z,18.30
2022-08-07T21:32:43.747Z,18.25
2022-08-07T21:34:46.344Z,18.33
2022-08-07T21:37:22.946Z,18.20
2022-08-07T21:39:59.426Z,18.16
2022-08-07T21:42:45.966Z,18.19
2022-08-07T21:46:08.452Z,18.15
2022-08-07T21:48:32.464Z,18.10
2022-08-07T21:51:20.401Z,18.03
2022-08-07T21:53:56.436Z,17.93
2022-08-07T21:56:47.169Z,17.81
2022-08-07T22:00:03.035Z,17.69
2022-08-07T22:02:32.199Z,17.64
2022-08-07T22:05:04.441Z,17.75
2022-08-07T22:07:48.643Z,17.76
2022-08-07T22:10:32.781Z,17.82
2022-08-07T22:13:13.758Z,17.93
2022-08-07T22:16:39.780Z,18.07
2022-08-07T22:18:43.305Z,18.04
2022-08-07T22:21:20.484Z,18.09
2022-08-07T22:23:56.150Z,18.17
2022-08-07T22:26:30.682Z,18.09
2022-08-07T22:29:14.011Z,18.12
2022-08-07T22:32:00.305Z,18.23
2022-08-07T22:34:52.949Z,18.13
2022-08-07T22:38:03.486Z,18.04
2022-08-07T22:40:27.929Z,17.86
2022-08-07T22:43:09.419Z,17.97
2022-08-07T22:46:21.847Z,17.66
2022-08-07T22:49:07.705Z,17.61
2022-08-07T22:52:07.004Z,17.53
2022-08-07T22:55:17.203Z,17.56
2022-08-07T22:58:27.685Z,17.69
2022-08-07T23:01:16.500Z,17.68
2022-08-07T23:03:58.278Z,17.67
2022-08-07T23:06:50.005Z,17.64
2022-08-07T23:10:03.848Z,17.65
2022-08-07T23:12:37.987Z,17.61
2022-08-07T23:16:06.063Z,17.59
2022-08-07T23:18:25.997Z,17.59
2022-08-07T23:21:20.953Z,17.62
2022-08-07T23:24:20.201Z,17.48
2022-08-07T23:27:14.624Z,17.43
2022-08-07T23:30:39.125Z,17.33
2022-08-07T23:34:36.191Z,17.27
2022-08-07T23:36:17.312Z,17.23
2022-08-07T23:39:08.565Z,17.24
2022-08-07T23:42:01.677Z,17.21
2022-08-07T23:45:15.086Z,17.34
2022-08-07T23:48:17.043Z,17.29
2022-08-07T23:50:54.508Z,17.27
2022-08-07T23:53:51.202Z,17.20
2022-08-07T23:56:28.064Z,17.12
